createdAt,value
2023-08-22T00:00:20.309Z,24.17
2023-08-22T00:02:47.140Z,20.38
2023-08-22T00:07:42.096Z,21.95
2023-08-22T00:10:10.114Z,24.40
2023-08-22T00:12:36.963Z,26.40
2023-08-22T00:17:33.284Z,20.25
2023-08-22T00:20:00.317Z,21.92
2023-08-22T00:24:53.619Z,21.52
2023-08-22T00:27:20.403Z,21.70
2023-08-22T00:29:47.168Z,28.77
2023-08-22T00:32:15.145Z,22.88
2023-08-22T00:34:41.856Z,20.70
2023-08-22T00:37:08.625Z,26.05
2023-08-22T00:39:35.480Z,24.67
2023-08-22T00:42:02.390Z,25.42
2023-08-22T00:46:56.010Z,26.58
2023-08-22T00:49:22.902Z,25.50
2023-08-22T00:54:16.726Z,20.50
2023-08-22T00:56:43.771Z,21.27
2023-08-22T00:59:11.680Z,25.35
2023-08-22T01:01:38.529Z,26.45
2023-08-22T01:04:05.314Z,24.13
2023-08-22T01:06:50.963Z,28.00
2023-08-22T01:09:28.574Z,26.17
2023-08-22T01:12:04.873Z,24.35
2023-08-22T01:14:36.532Z,28.98
2023-08-22T01:17:05.383Z,26.58
2023-08-22T01:19:32.211Z,23.90
2023-08-22T01:24:25.694Z,23.45
2023-08-22T01:26:52.604Z,24.50
2023-08-22T01:32:12.003Z,22.23
2023-08-22T01:34:40.388Z,24.75
2023-08-22T01:37:10.966Z,23.67
2023-08-22T01:39:40.502Z,24.88
2023-08-22T01:42:07.916Z,29.67
2023-08-22T01:44:35.011Z,29.75
2023-08-22T01:47:02.483Z,20.75
2023-08-22T01:49:29.299Z,28.25
2023-08-22T01:51:57.236Z,25.27
2023-08-22T01:54:24.000Z,23.60
2023-08-22T01:56:51.133Z,25.95
2023-08-22T01:59:18.505Z,28.67
2023-08-22T02:01:45.718Z,26.58
2023-08-22T02:04:13.188Z,23.58
2023-08-22T02:06:39.962Z,22.25
2023-08-22T02:09:06.844Z,23.58
2023-08-22T02:11:33.944Z,29.85
2023-08-22T02:14:00.895Z,25.58
2023-08-22T02:16:27.645Z,24.73
2023-08-22T02:18:54.542Z,36.35
2023-08-22T02:23:47.898Z,25.23
2023-08-22T02:26:14.642Z,24.65
2023-08-22T02:28:41.390Z,28.45
2023-08-22T02:31:08.199Z,23.75
2023-08-22T02:33:35.201Z,28.60
2023-08-22T02:36:02.191Z,26.38
2023-08-22T02:38:29.030Z,27.33
2023-08-22T02:43:22.401Z,20.73
2023-08-22T02:45:49.203Z,25.15
2023-08-22T02:48:16.048Z,22.67
2023-08-22T02:50:42.810Z,25.67
2023-08-22T02:53:12.331Z,27.35
2023-08-22T02:55:39.194Z,26.50
2023-08-22T02:58:06.695Z,22.48
2023-08-22T03:00:36.406Z,31.70
2023-08-22T03:03:04.684Z,29.75
2023-08-22T03:05:32.377Z,24.38
2023-08-22T03:07:59.626Z,25.23
2023-08-22T03:12:53.524Z,22.48
2023-08-22T03:15:20.428Z,23.00
2023-08-22T03:17:47.213Z,22.55
2023-08-22T03:20:14.098Z,28.48
2023-08-22T03:22:42.579Z,24.27
2023-08-22T03:25:09.727Z,25.58
2023-08-22T03:27:38.958Z,26.98
2023-08-22T03:30:06.723Z,23.30
2023-08-22T03:32:35.862Z,21.05
2023-08-22T03:35:05.067Z,23.85
2023-08-22T03:37:34.376Z,28.00
2023-08-22T03:42:29.049Z,30.05
2023-08-22T03:45:00.968Z,23.02
2023-08-22T03:47:28.104Z,29.27
2023-08-22T03:49:55.843Z,23.83
2023-08-22T03:52:26.110Z,29.67
2023-08-22T03:54:52.994Z,25.77
2023-08-22T03:59:48.831Z,23.80
2023-08-22T04:02:16.317Z,20.77
2023-08-22T04:04:43.194Z,25.90
2023-08-22T04:09:36.612Z,19.45
2023-08-22T04:12:04.861Z,22.73
2023-08-22T04:16:58.308Z,29.65
2023-08-22T04:19:26.208Z,20.52
2023-08-22T04:21:53.377Z,20.80
2023-08-22T04:29:22.011Z,20.20
2023-08-22T04:31:50.641Z,21.10
2023-08-22T04:34:17.944Z,23.92
2023-08-22T04:36:52.596Z,21.08
2023-08-22T04:41:47.972Z,17.83
2023-08-22T04:44:27.240Z,23.02
2023-08-22T04:46:57.226Z,27.55
2023-08-22T04:49:25.287Z,26.77
2023-08-22T04:51:52.135Z,26.58
2023-08-22T04:54:21.414Z,26.83
2023-08-22T04:56:48.287Z,23.42
2023-08-22T04:59:15.005Z,26.42
2023-08-22T05:01:41.822Z,24.08
2023-08-22T05:06:35.857Z,26.45
2023-08-22T05:09:07.749Z,24.90
2023-08-22T05:11:35.134Z,23.52
2023-08-22T05:14:02.366Z,21.85
2023-08-22T05:16:29.381Z,23.50
2023-08-22T05:18:57.242Z,18.13
2023-08-22T05:21:24.047Z,21.60
2023-08-22T05:23:50.819Z,19.40
2023-08-22T05:26:18.388Z,18.58
2023-08-22T05:28:45.854Z,23.55
2023-08-22T05:31:23.493Z,24.80
2023-08-22T05:33:52.424Z,21.55
2023-08-22T05:36:19.785Z,20.40
2023-08-22T05:38:46.959Z,30.00
2023-08-22T05:41:14.903Z,27.23
2023-08-22T05:43:41.953Z,24.98
2023-08-22T05:46:08.731Z,22.90
2023-08-22T05:51:04.072Z,20.75
2023-08-22T05:53:32.555Z,20.05
2023-08-22T05:55:59.355Z,29.15
2023-08-22T05:58:26.203Z,23.65
2023-08-22T06:00:54.335Z,19.08
2023-08-22T06:03:21.476Z,22.23
2023-08-22T06:05:49.804Z,21.35
2023-08-22T06:08:19.581Z,18.15
2023-08-22T06:10:46.392Z,21.17
2023-08-22T06:15:40.713Z,18.73
2023-08-22T06:18:09.488Z,16.67
2023-08-22T06:20:40.389Z,16.10
2023-08-22T06:23:07.709Z,16.98
2023-08-22T06:25:34.658Z,20.85
2023-08-22T06:30:28.572Z,21.83
2023-08-22T06:32:55.376Z,16.83
2023-08-22T06:37:48.765Z,19.30
2023-08-22T06:40:15.480Z,20.35
2023-08-22T06:42:42.263Z,14.43
2023-08-22T06:47:35.974Z,13.30
2023-08-22T06:52:31.205Z,15.55
2023-08-22T06:57:25.014Z,15.23
2023-08-22T06:59:51.762Z,12.70
2023-08-22T07:04:45.252Z,16.23
2023-08-22T07:07:12.080Z,18.65
2023-08-22T07:12:05.673Z,15.75
2023-08-22T07:14:32.444Z,11.18
2023-08-22T07:19:39.607Z,14.40
2023-08-22T07:22:08.349Z,16.08
2023-08-22T07:24:35.052Z,11.32
2023-08-22T07:27:01.843Z,17.90
2023-08-22T07:29:28.626Z,17.55
2023-08-22T07:31:59.346Z,15.90
2023-08-22T07:34:26.358Z,12.85
2023-08-22T07:36:53.617Z,14.05
2023-08-22T07:39:22.736Z,12.63
2023-08-22T07:41:49.552Z,12.30
2023-08-22T07:44:16.531Z,12.10
2023-08-22T07:46:43.281Z,14.02
2023-08-22T07:49:10.053Z,17.27
2023-08-22T07:51:37.585Z,12.60
2023-08-22T07:54:07.545Z,14.90
2023-08-22T07:56:35.467Z,14.10
2023-08-22T07:59:02.391Z,12.57
2023-08-22T08:01:29.310Z,14.50
2023-08-22T08:06:23.640Z,14.73
2023-08-22T08:08:50.367Z,11.27
2023-08-22T08:11:17.175Z,11.73
2023-08-22T08:13:43.867Z,12.10
2023-08-22T08:16:10.720Z,14.32
2023-08-22T08:18:37.478Z,14.00
2023-08-22T08:21:04.890Z,14.57
2023-08-22T08:23:32.872Z,11.77
2023-08-22T08:25:59.717Z,11.32
2023-08-22T08:28:27.051Z,21.00
2023-08-22T08:30:53.848Z,11.07
2023-08-22T08:33:20.611Z,12.65
2023-08-22T08:35:47.505Z,11.80
2023-08-22T08:38:14.298Z,11.35
2023-08-22T08:40:43.909Z,15.32
2023-08-22T08:43:10.881Z,12.13
2023-08-22T08:45:39.961Z,10.20
2023-08-22T08:48:08.157Z,15.25
2023-08-22T08:50:39.141Z,11.70
2023-08-22T08:53:05.955Z,12.65
2023-08-22T08:55:33.537Z,11.02
2023-08-22T08:58:00.524Z,10.32
2023-08-22T09:00:27.987Z,12.38
2023-08-22T09:02:55.142Z,9.35
2023-08-22T09:05:23.339Z,13.13
2023-08-22T09:07:50.222Z,13.57
2023-08-22T09:10:36.041Z,11.85
2023-08-22T09:13:04.981Z,13.98
2023-08-22T09:15:32.123Z,25.17
2023-08-22T09:17:58.881Z,12.57
2023-08-22T09:20:25.935Z,8.48
2023-08-22T09:22:52.637Z,8.48
2023-08-22T09:25:20.157Z,11.30
2023-08-22T09:27:53.292Z,9.50
2023-08-22T09:30:25.675Z,13.48
2023-08-22T09:33:00.753Z,9.68
2023-08-22T09:35:33.956Z,11.38
2023-08-22T09:38:11.167Z,9.80
2023-08-22T09:40:52.835Z,9.60
2023-08-22T09:43:20.702Z,10.73
2023-08-22T09:45:51.023Z,9.73
2023-08-22T09:48:24.781Z,11.68
2023-08-22T09:50:58.361Z,9.65
2023-08-22T09:53:26.480Z,10.10
2023-08-22T09:55:54.615Z,9.52
2023-08-22T09:58:22.605Z,11.85
2023-08-22T10:00:51.169Z,9.00
2023-08-22T10:03:19.287Z,13.38
2023-08-22T10:05:47.360Z,8.68
2023-08-22T10:08:14.196Z,9.25
2023-08-22T10:10:43.438Z,9.40
2023-08-22T10:13:11.943Z,10.05
2023-08-22T10:15:40.919Z,9.13
2023-08-22T10:18:08.081Z,8.32
2023-08-22T10:20:38.668Z,9.23
2023-08-22T10:23:05.456Z,11.65
2023-08-22T10:25:48.355Z,13.02
2023-08-22T10:28:15.338Z,9.02
2023-08-22T10:31:01.561Z,9.25
2023-08-22T10:33:34.809Z,8.05
2023-08-22T10:36:16.208Z,8.20
2023-08-22T10:38:53.874Z,7.95
2023-08-22T10:41:25.318Z,8.98
2023-08-22T10:43:55.604Z,12.98
2023-08-22T10:47:00.978Z,8.80
2023-08-22T10:49:36.085Z,14.45
2023-08-22T10:52:13.602Z,8.27
2023-08-22T10:55:12.232Z,10.15
2023-08-22T10:57:39.988Z,9.27
2023-08-22T11:00:19.178Z,9.68
2023-08-22T11:02:49.045Z,8.65
2023-08-22T11:05:17.058Z,8.60
2023-08-22T11:07:55.537Z,8.50
2023-08-22T11:10:24.734Z,12.38
2023-08-22T11:12:55.299Z,9.20
2023-08-22T11:15:22.770Z,9.68
2023-08-22T11:17:52.058Z,8.32
2023-08-22T11:20:23.514Z,14.95
2023-08-22T11:22:50.618Z,10.25
2023-08-22T11:25:27.820Z,9.70
2023-08-22T11:27:54.789Z,9.35
2023-08-22T11:30:22.512Z,7.85
2023-08-22T11:32:50.438Z,8.55
2023-08-22T11:35:17.772Z,8.30
2023-08-22T11:37:45.461Z,7.10
2023-08-22T11:40:16.217Z,9.48
2023-08-22T11:42:43.958Z,9.60
2023-08-22T11:45:16.166Z,7.07
2023-08-22T11:47:44.514Z,21.80
2023-08-22T11:50:16.814Z,7.97
2023-08-22T11:52:46.039Z,8.40
2023-08-22T11:55:17.370Z,6.03
2023-08-22T11:57:46.025Z,9.18
2023-08-22T12:00:14.601Z,7.25
2023-08-22T12:02:50.683Z,7.57
2023-08-22T12:05:35.028Z,7.57
2023-08-22T12:08:20.364Z,9.45
2023-08-22T12:10:51.794Z,6.82
2023-08-22T12:13:24.058Z,7.97
2023-08-22T12:15:51.728Z,6.28
2023-08-22T12:18:19.512Z,7.40
2023-08-22T12:20:49.778Z,7.80
2023-08-22T12:23:16.917Z,6.07
2023-08-22T12:25:45.313Z,6.18
2023-08-22T12:28:12.635Z,5.15
2023-08-22T12:30:40.273Z,5.78
2023-08-22T12:33:09.049Z,7.55
2023-08-22T12:35:37.713Z,8.38
2023-08-22T12:38:06.381Z,8.88
2023-08-22T12:40:33.208Z,6.90
2023-08-22T12:43:02.370Z,8.00
2023-08-22T12:45:29.291Z,5.05
2023-08-22T12:47:56.371Z,5.88
2023-08-22T12:50:25.162Z,9.05
2023-08-22T12:52:52.001Z,7.90
2023-08-22T12:55:21.587Z,4.70
2023-08-22T12:57:48.865Z,4.85
2023-08-22T13:00:16.130Z,4.40
2023-08-22T13:02:43.235Z,5.90
2023-08-22T13:05:10.288Z,4.93
2023-08-22T13:07:37.123Z,4.78
2023-08-22T13:10:05.970Z,4.93
2023-08-22T13:12:33.119Z,8.77
2023-08-22T13:15:02.371Z,5.30
2023-08-22T13:17:29.239Z,5.28
2023-08-22T13:19:57.317Z,6.28
2023-08-22T13:22:24.516Z,6.43
2023-08-22T13:24:51.505Z,6.53
2023-08-22T13:27:19.731Z,9.02
2023-08-22T13:29:46.676Z,7.60
2023-08-22T13:32:13.585Z,8.50
2023-08-22T13:34:40.390Z,11.43
2023-08-22T13:37:07.117Z,6.47
2023-08-22T13:39:35.199Z,4.55
2023-08-22T13:42:02.085Z,4.72
2023-08-22T13:44:28.815Z,6.43
2023-08-22T13:46:55.657Z,5.20
2023-08-22T13:49:22.391Z,5.57
2023-08-22T13:51:49.133Z,7.30
2023-08-22T13:54:17.669Z,7.00
2023-08-22T13:56:44.497Z,9.73
2023-08-22T13:59:11.370Z,7.78
2023-08-22T14:01:38.899Z,5.40
2023-08-22T14:04:06.215Z,8.18
2023-08-22T14:06:33.036Z,6.95
2023-08-22T14:09:02.718Z,11.85
2023-08-22T14:11:31.542Z,6.30
2023-08-22T14:13:58.272Z,8.70
2023-08-22T14:16:25.070Z,5.35
2023-08-22T14:18:51.949Z,5.93
2023-08-22T14:21:18.940Z,9.63
2023-08-22T14:23:46.829Z,5.97
2023-08-22T14:26:13.549Z,7.18
2023-08-22T14:28:40.294Z,7.15
2023-08-22T14:31:07.087Z,6.85
2023-08-22T14:33:34.302Z,6.88
2023-08-22T14:36:06.067Z,6.38
2023-08-22T14:38:33.583Z,8.43
2023-08-22T14:41:00.393Z,7.78
2023-08-22T14:43:30.546Z,10.52
2023-08-22T14:45:57.967Z,8.48
2023-08-22T14:48:25.102Z,12.80
2023-08-22T14:50:56.023Z,7.88
2023-08-22T14:53:23.524Z,8.73
2023-08-22T14:56:01.391Z,7.40
2023-08-22T14:58:37.795Z,7.93
2023-08-22T15:01:04.684Z,8.60
2023-08-22T15:03:31.417Z,9.05
2023-08-22T15:05:58.194Z,7.60
2023-08-22T15:08:26.338Z,7.60
2023-08-22T15:10:54.056Z,6.47
2023-08-22T15:13:20.918Z,8.02
2023-08-22T15:15:48.204Z,10.20
2023-08-22T15:18:15.112Z,9.38
2023-08-22T15:20:41.898Z,11.80
2023-08-22T15:23:08.740Z,8.50
2023-08-22T15:25:35.863Z,9.57
2023-08-22T15:28:03.715Z,8.38
2023-08-22T15:30:30.500Z,6.60
2023-08-22T15:32:57.471Z,8.40
2023-08-22T15:35:24.573Z,8.05
2023-08-22T15:37:51.591Z,8.05
2023-08-22T15:40:18.569Z,9.15
2023-08-22T15:42:45.371Z,6.70
2023-08-22T15:45:12.231Z,6.93
2023-08-22T15:47:39.009Z,7.22
2023-08-22T15:50:09.799Z,11.82
2023-08-22T15:52:41.382Z,7.13
2023-08-22T15:55:09.470Z,18.75
2023-08-22T15:57:36.178Z,6.65
2023-08-22T16:00:03.607Z,7.70
2023-08-22T16:02:33.612Z,8.63
2023-08-22T16:05:00.919Z,9.02
2023-08-22T16:07:27.709Z,8.73
2023-08-22T16:09:54.426Z,12.77
2023-08-22T16:12:21.200Z,11.30
2023-08-22T16:14:47.960Z,7.18
2023-08-22T16:17:14.743Z,13.18
2023-08-22T16:19:41.528Z,8.52
2023-08-22T16:22:09.104Z,11.13
2023-08-22T16:24:35.881Z,9.15
2023-08-22T16:27:02.608Z,8.00
2023-08-22T16:29:29.360Z,8.40
2023-08-22T16:31:56.998Z,12.80
2023-08-22T16:34:23.802Z,8.20
2023-08-22T16:36:50.611Z,44.25
2023-08-22T16:39:19.069Z,9.85
2023-08-22T16:41:45.852Z,8.38
2023-08-22T16:44:12.719Z,9.18
2023-08-22T16:46:39.532Z,7.88
2023-08-22T16:49:08.584Z,9.55
2023-08-22T16:51:35.704Z,9.38
2023-08-22T16:54:06.094Z,11.90
2023-08-22T16:56:37.548Z,9.45
2023-08-22T16:59:09.416Z,7.70
2023-08-22T17:01:36.721Z,7.65
2023-08-22T17:04:03.718Z,11.95
2023-08-22T17:06:30.466Z,14.60
2023-08-22T17:08:59.592Z,14.02
2023-08-22T17:11:26.334Z,10.07
2023-08-22T17:13:53.071Z,14.32
2023-08-22T17:16:20.321Z,16.20
2023-08-22T17:18:47.152Z,14.23
2023-08-22T17:21:15.578Z,12.23
2023-08-22T17:23:43.277Z,11.02
2023-08-22T17:26:14.563Z,8.82
2023-08-22T17:28:41.687Z,9.38
2023-08-22T17:31:12.739Z,31.13
2023-08-22T17:33:40.868Z,12.88
2023-08-22T17:36:12.438Z,43.20
2023-08-22T17:38:41.215Z,11.45
2023-08-22T17:41:09.687Z,9.25
2023-08-22T17:43:37.744Z,10.13
2023-08-22T17:46:05.767Z,9.45
2023-08-22T17:48:33.787Z,12.07
2023-08-22T17:51:01.661Z,14.85
2023-08-22T17:53:28.834Z,10.88
2023-08-22T17:55:56.094Z,12.00
2023-08-22T17:58:23.468Z,21.83
2023-08-22T18:00:51.582Z,11.63
2023-08-22T18:03:20.709Z,13.32
2023-08-22T18:05:58.501Z,34.08
2023-08-22T18:08:26.013Z,85.22
2023-08-22T18:10:53.738Z,13.45
2023-08-22T18:13:21.129Z,10.45
2023-08-22T18:16:09.120Z,8.85
2023-08-22T18:18:41.482Z,12.48
2023-08-22T18:21:12.067Z,12.73
2023-08-22T18:23:40.424Z,12.02
2023-08-22T18:26:11.802Z,11.15
2023-08-22T18:28:39.880Z,11.65
2023-08-22T18:31:27.308Z,11.13
2023-08-22T18:33:56.032Z,10.13
2023-08-22T18:36:30.113Z,11.10
2023-08-22T18:38:56.998Z,11.60
2023-08-22T18:41:24.044Z,12.25
2023-08-22T18:43:52.391Z,11.95
2023-08-22T18:46:20.949Z,11.80
2023-08-22T18:48:47.814Z,15.68
2023-08-22T18:51:14.709Z,32.55
2023-08-22T18:53:41.506Z,20.08
2023-08-22T18:56:10.150Z,18.27
2023-08-22T18:58:38.298Z,15.73
2023-08-22T19:01:05.564Z,12.65
2023-08-22T19:03:32.576Z,12.43
2023-08-22T19:05:59.445Z,14.88
2023-08-22T19:08:26.855Z,11.60
2023-08-22T19:10:54.451Z,13.18
2023-08-22T19:13:21.213Z,12.40
2023-08-22T19:15:48.196Z,11.20
2023-08-22T19:18:15.485Z,15.30
2023-08-22T19:20:44.973Z,12.13
2023-08-22T19:23:14.342Z,12.55
2023-08-22T19:25:41.333Z,14.40
2023-08-22T19:28:08.391Z,17.83
2023-08-22T19:30:35.800Z,11.15
2023-08-22T19:33:17.817Z,12.45
2023-08-22T19:35:45.615Z,11.63
2023-08-22T19:38:12.474Z,11.07
2023-08-22T19:40:43.448Z,13.90
2023-08-22T19:43:10.378Z,14.02
2023-08-22T19:45:37.176Z,12.60
2023-08-22T19:48:04.266Z,11.45
2023-08-22T19:50:32.343Z,18.92
2023-08-22T19:52:59.363Z,11.85
2023-08-22T19:55:26.362Z,12.13
2023-08-22T19:57:53.055Z,14.32
2023-08-22T20:00:19.873Z,10.45
2023-08-22T20:02:47.036Z,12.95
2023-08-22T20:05:15.133Z,17.77
2023-08-22T20:07:42.084Z,17.38
2023-08-22T20:10:10.356Z,14.63
2023-08-22T20:12:37.512Z,15.25
2023-08-22T20:15:04.568Z,15.38
2023-08-22T20:17:31.294Z,16.48
2023-08-22T20:19:58.050Z,17.08
2023-08-22T20:22:24.914Z,18.67
2023-08-22T20:24:51.662Z,19.70
2023-08-22T20:27:18.402Z,16.20
2023-08-22T20:29:45.211Z,20.13
2023-08-22T20:32:12.419Z,13.85
2023-08-22T20:34:39.281Z,14.55
2023-08-22T20:37:06.020Z,12.48
2023-08-22T20:39:33.200Z,14.05
2023-08-22T20:42:00.070Z,14.90
2023-08-22T20:44:26.778Z,14.20
2023-08-22T20:46:53.703Z,15.35
2023-08-22T20:49:20.617Z,14.00
2023-08-22T20:51:47.344Z,19.00
2023-08-22T20:54:14.185Z,14.80
2023-08-22T20:56:40.923Z,14.23
2023-08-22T20:59:07.667Z,17.20
2023-08-22T21:01:34.514Z,16.02
2023-08-22T21:04:01.381Z,14.10
2023-08-22T21:06:28.241Z,13.77
2023-08-22T21:08:55.004Z,15.05
2023-08-22T21:11:21.754Z,15.98
2023-08-22T21:13:48.464Z,13.15
2023-08-22T21:16:15.458Z,14.20
2023-08-22T21:18:42.243Z,15.25
2023-08-22T21:21:09.044Z,18.38
2023-08-22T21:23:37.202Z,15.25
2023-08-22T21:26:04.133Z,16.20
2023-08-22T21:28:30.838Z,19.23
2023-08-22T21:30:57.632Z,20.25
2023-08-22T21:33:24.331Z,16.73
2023-08-22T21:35:51.106Z,13.48
2023-08-22T21:38:17.890Z,17.65
2023-08-22T21:40:48.746Z,23.25
2023-08-22T21:43:15.847Z,14.13
2023-08-22T21:45:42.897Z,15.88
2023-08-22T21:48:10.023Z,15.63
2023-08-22T21:50:36.956Z,19.35
2023-08-22T21:53:03.820Z,16.10
2023-08-22T21:55:30.606Z,20.73
2023-08-22T22:00:24.008Z,14.90
2023-08-22T22:02:51.186Z,18.30
2023-08-22T22:05:18.370Z,15.45
2023-08-22T22:07:46.008Z,20.80
2023-08-22T22:10:13.126Z,19.50
2023-08-22T22:15:06.965Z,19.17
2023-08-22T22:17:33.792Z,20.13
2023-08-22T22:20:00.558Z,19.42
2023-08-22T22:22:27.593Z,19.88
2023-08-22T22:24:54.369Z,18.17
2023-08-22T22:29:47.732Z,21.60
2023-08-22T22:32:14.541Z,21.33
2023-08-22T22:37:09.012Z,15.60
2023-08-22T22:39:35.806Z,20.20
2023-08-22T22:42:02.659Z,20.17
2023-08-22T22:44:29.378Z,21.85
2023-08-22T22:46:56.297Z,19.50
2023-08-22T22:49:23.037Z,17.27
2023-08-22T22:54:16.397Z,17.38
2023-08-22T22:56:43.195Z,18.48
2023-08-22T23:01:36.623Z,20.77
2023-08-22T23:06:30.412Z,21.65
2023-08-22T23:08:58.357Z,16.63
2023-08-22T23:14:04.275Z,19.83
2023-08-22T23:16:31.057Z,23.25
2023-08-22T23:21:24.497Z,18.70
2023-08-22T23:23:51.200Z,20.77
2023-08-22T23:26:17.958Z,20.45
2023-08-22T23:31:11.365Z,20.05
2023-08-22T23:33:38.302Z,18.92
2023-08-22T23:36:05.114Z,21.50
2023-08-22T23:40:58.452Z,25.70
2023-08-22T23:43:25.174Z,21.73
2023-08-22T23:48:18.514Z,21.25
2023-08-22T23:50:45.288Z,20.65
2023-08-22T23:55:38.909Z,19.35
2023-08-22T23:58:05.697Z,21.83
